createdAt,value
2022-12-24T00:01:19.817Z,11.03
2022-12-24T00:03:46.896Z,11.30
2022-12-24T00:06:24.252Z,9.90
2022-12-24T00:08:52.038Z,10.63
2022-12-24T00:11:19.620Z,9.77
2022-12-24T00:13:48.764Z,9.50
2022-12-24T00:16:16.019Z,10.30
2022-12-24T00:18:46.201Z,9.47
2022-12-24T00:21:15.106Z,10.93
2022-12-24T00:23:42.334Z,8.77
2022-12-24T00:26:09.620Z,7.37
2022-12-24T00:28:36.559Z,8.40
2022-12-24T00:31:15.930Z,7.13
2022-12-24T00:33:44.688Z,7.13
2022-12-24T00:36:11.647Z,6.80
2022-12-24T00:38:39.311Z,6.67
2022-12-24T00:41:25.162Z,5.80
2022-12-24T00:44:13.495Z,7.00
2022-12-24T00:46:41.926Z,7.00
2022-12-24T00:49:11.039Z,7.70
2022-12-24T00:51:38.355Z,8.70
2022-12-24T00:54:05.670Z,8.80
2022-12-24T00:56:32.962Z,8.27
2022-12-24T00:59:00.189Z,9.13
2022-12-24T01:01:27.464Z,7.17
2022-12-24T01:04:15.890Z,7.30
2022-12-24T01:06:43.078Z,7.67
2022-12-24T01:09:10.038Z,8.03
2022-12-24T01:11:37.002Z,7.10
2022-12-24T01:14:03.985Z,6.53
2022-12-24T01:16:31.014Z,6.10
2022-12-24T01:18:58.104Z,7.50
2022-12-24T01:21:25.043Z,6.77
2022-12-24T01:23:53.257Z,6.40
2022-12-24T01:26:20.249Z,8.20
2022-12-24T01:28:47.223Z,7.50
2022-12-24T01:31:19.595Z,6.27
2022-12-24T01:33:48.856Z,6.90
2022-12-24T01:36:16.092Z,6.03
2022-12-24T01:38:43.128Z,7.57
2022-12-24T01:41:35.132Z,5.87
2022-12-24T01:44:36.739Z,6.47
2022-12-24T01:47:08.435Z,5.87
2022-12-24T01:49:36.601Z,6.50
2022-12-24T01:52:07.349Z,6.83
2022-12-24T01:54:42.197Z,5.47
2022-12-24T01:57:14.871Z,5.63
2022-12-24T01:59:46.387Z,5.93
2022-12-24T02:02:14.323Z,6.83
2022-12-24T02:04:50.611Z,6.73
2022-12-24T02:07:17.547Z,5.60
2022-12-24T02:09:44.607Z,5.70
2022-12-24T02:12:11.667Z,5.77
2022-12-24T02:14:38.869Z,6.03
2022-12-24T02:17:46.333Z,5.70
2022-12-24T02:21:04.282Z,5.67
2022-12-24T02:24:06.683Z,6.03
2022-12-24T02:26:58.046Z,6.57
2022-12-24T02:30:00.750Z,7.17
2022-12-24T02:32:54.817Z,7.80
2022-12-24T02:35:35.410Z,5.97
2022-12-24T02:38:13.829Z,7.93
2022-12-24T02:40:47.682Z,7.13
2022-12-24T02:43:20.100Z,7.20
2022-12-24T02:45:58.513Z,6.87
2022-12-24T02:48:27.854Z,6.17
2022-12-24T02:51:07.782Z,5.93
2022-12-24T02:53:35.870Z,7.53
2022-12-24T02:56:55.653Z,5.70
2022-12-24T02:59:59.344Z,6.13
2022-12-24T03:03:01.727Z,6.67
2022-12-24T03:05:53.577Z,6.43
2022-12-24T03:08:46.946Z,6.97
2022-12-24T03:11:15.467Z,7.00
2022-12-24T03:13:44.026Z,7.20
2022-12-24T03:16:15.268Z,6.33
2022-12-24T03:18:45.612Z,6.43
2022-12-24T03:21:29.289Z,7.10
2022-12-24T03:23:56.905Z,6.10
2022-12-24T03:26:25.182Z,6.33
2022-12-24T03:28:52.374Z,7.50
2022-12-24T03:31:19.715Z,8.40
2022-12-24T03:33:47.141Z,5.93
2022-12-24T03:36:14.389Z,6.33
2022-12-24T03:38:41.677Z,7.07
2022-12-24T03:41:08.992Z,6.43
2022-12-24T03:43:35.998Z,6.13
2022-12-24T03:46:07.784Z,6.40
2022-12-24T03:48:35.697Z,6.03
2022-12-24T03:51:03.686Z,6.40
2022-12-24T03:53:31.098Z,7.37
2022-12-24T03:55:58.072Z,6.50
2022-12-24T03:58:24.933Z,5.90
2022-12-24T04:00:53.761Z,6.10
2022-12-24T04:03:21.171Z,6.10
2022-12-24T04:05:48.176Z,5.83
2022-12-24T04:08:15.178Z,5.53
2022-12-24T04:10:42.331Z,6.40
2022-12-24T04:13:09.178Z,5.97
2022-12-24T04:15:36.184Z,5.80
2022-12-24T04:18:03.294Z,7.13
2022-12-24T04:20:30.153Z,5.53
2022-12-24T04:22:57.059Z,6.87
2022-12-24T04:25:23.976Z,6.93
2022-12-24T04:27:50.879Z,6.10
2022-12-24T04:30:18.057Z,7.10
2022-12-24T04:32:45.236Z,7.10
2022-12-24T04:35:12.255Z,6.00
2022-12-24T04:37:39.130Z,5.47
2022-12-24T04:40:06.714Z,8.30
2022-12-24T04:42:33.617Z,6.73
2022-12-24T04:45:00.801Z,6.87
2022-12-24T04:47:27.727Z,7.37
2022-12-24T04:49:54.614Z,7.10
2022-12-24T04:52:21.947Z,5.93
2022-12-24T04:54:48.854Z,6.53
2022-12-24T04:57:15.727Z,6.00
2022-12-24T04:59:42.683Z,6.10
2022-12-24T05:02:09.785Z,6.97
2022-12-24T05:04:36.913Z,6.40
2022-12-24T05:07:04.178Z,5.90
2022-12-24T05:09:31.146Z,5.77
2022-12-24T05:11:58.170Z,6.17
2022-12-24T05:14:25.041Z,6.93
2022-12-24T05:16:51.990Z,6.40
2022-12-24T05:19:18.974Z,6.33
2022-12-24T05:22:05.829Z,5.30
2022-12-24T05:24:51.386Z,5.90
2022-12-24T05:27:18.379Z,5.23
2022-12-24T05:29:45.280Z,5.30
2022-12-24T05:32:12.274Z,4.73
2022-12-24T05:34:39.124Z,5.00
2022-12-24T05:37:06.073Z,5.70
2022-12-24T05:39:32.964Z,6.50
2022-12-24T05:41:59.843Z,6.00
2022-12-24T05:44:26.712Z,6.87
2022-12-24T05:46:53.599Z,5.37
2022-12-24T05:49:20.472Z,5.30
2022-12-24T05:51:48.677Z,5.87
2022-12-24T05:54:15.581Z,6.43
2022-12-24T05:56:42.518Z,5.70
2022-12-24T05:59:09.470Z,5.07
2022-12-24T06:01:36.565Z,5.30
2022-12-24T06:04:03.595Z,5.57
2022-12-24T06:06:32.855Z,5.30
2022-12-24T06:08:59.785Z,5.90
2022-12-24T06:11:28.234Z,8.23
2022-12-24T06:13:55.579Z,6.00
2022-12-24T06:16:23.922Z,6.23
2022-12-24T06:18:51.665Z,5.97
2022-12-24T06:21:18.904Z,6.90
2022-12-24T06:23:46.156Z,7.00
2022-12-24T06:26:16.993Z,6.33
2022-12-24T06:28:45.157Z,5.60
2022-12-24T06:31:18.906Z,5.47
2022-12-24T06:33:46.599Z,6.37
2022-12-24T06:36:20.400Z,6.43
2022-12-24T06:38:49.486Z,5.20
2022-12-24T06:41:17.684Z,7.00
2022-12-24T06:43:49.501Z,6.37
2022-12-24T06:46:17.749Z,5.03
2022-12-24T06:48:46.365Z,5.90
2022-12-24T06:51:14.998Z,5.70
2022-12-24T06:53:42.009Z,6.37
2022-12-24T06:56:11.483Z,5.70
2022-12-24T06:58:39.185Z,5.90
2022-12-24T07:01:07.989Z,5.60
2022-12-24T07:03:35.260Z,6.20
2022-12-24T07:06:02.776Z,6.50
2022-12-24T07:08:29.893Z,6.03
2022-12-24T07:10:58.761Z,6.37
2022-12-24T07:13:25.747Z,5.87
2022-12-24T07:16:00.693Z,7.67
2022-12-24T07:18:28.148Z,8.30
2022-12-24T07:20:55.095Z,6.80
2022-12-24T07:23:22.106Z,6.30
2022-12-24T07:25:49.219Z,8.43
2022-12-24T07:28:16.197Z,7.57
2022-12-24T07:30:48.411Z,7.00
2022-12-24T07:33:38.173Z,7.37
2022-12-24T07:36:08.555Z,6.80
2022-12-24T07:38:35.889Z,6.80
2022-12-24T07:41:03.021Z,7.00
2022-12-24T07:43:30.020Z,6.87
2022-12-24T07:46:01.438Z,8.07
2022-12-24T07:48:30.389Z,6.50
2022-12-24T07:50:57.873Z,7.20
2022-12-24T07:53:26.667Z,6.53
2022-12-24T07:55:53.848Z,6.27
2022-12-24T07:58:21.370Z,6.50
2022-12-24T08:00:48.549Z,7.83
2022-12-24T08:03:20.841Z,6.33
2022-12-24T08:05:48.946Z,6.13
2022-12-24T08:08:16.155Z,5.70
2022-12-24T08:10:44.389Z,6.10
2022-12-24T08:13:11.816Z,6.27
2022-12-24T08:15:38.763Z,6.13
2022-12-24T08:18:05.739Z,5.37
2022-12-24T08:20:32.803Z,5.33
2022-12-24T08:22:59.711Z,5.93
2022-12-24T08:25:26.619Z,5.60
2022-12-24T08:27:53.571Z,6.20
2022-12-24T08:30:21.678Z,6.73
2022-12-24T08:32:49.197Z,6.73
2022-12-24T08:35:16.348Z,5.70
2022-12-24T08:37:43.337Z,6.27
2022-12-24T08:40:11.434Z,5.83
2022-12-24T08:42:38.447Z,6.10
2022-12-24T08:45:06.249Z,6.20
2022-12-24T08:47:33.130Z,5.83
2022-12-24T08:50:00.057Z,6.23
2022-12-24T08:52:27.216Z,6.70
2022-12-24T08:54:55.159Z,7.73
2022-12-24T08:57:22.055Z,6.90
2022-12-24T08:59:49.055Z,7.57
2022-12-24T09:02:16.526Z,7.00
2022-12-24T09:04:43.510Z,6.77
2022-12-24T09:07:11.229Z,6.77
2022-12-24T09:09:38.545Z,7.00
2022-12-24T09:12:10.262Z,5.93
2022-12-24T09:14:38.516Z,5.57
2022-12-24T09:17:05.502Z,6.43
2022-12-24T09:19:33.670Z,6.70
2022-12-24T09:22:02.691Z,6.27
2022-12-24T09:24:29.899Z,5.23
2022-12-24T09:26:58.145Z,6.03
2022-12-24T09:29:25.851Z,5.60
2022-12-24T09:31:55.329Z,6.03
2022-12-24T09:34:30.048Z,6.97
2022-12-24T09:36:57.605Z,6.07
2022-12-24T09:39:24.528Z,4.90
2022-12-24T09:42:17.638Z,5.43
2022-12-24T09:45:01.046Z,6.80
2022-12-24T09:47:33.059Z,5.97
2022-12-24T09:50:03.265Z,4.83
2022-12-24T09:52:36.605Z,6.20
2022-12-24T09:55:23.414Z,5.57
2022-12-24T09:57:53.267Z,5.73
2022-12-24T10:00:28.368Z,6.20
2022-12-24T10:02:56.029Z,6.30
2022-12-24T10:05:38.677Z,6.60
2022-12-24T10:08:37.870Z,5.90
2022-12-24T10:11:26.906Z,6.20
2022-12-24T10:14:11.381Z,6.20
2022-12-24T10:17:16.725Z,6.17
2022-12-24T10:20:22.617Z,5.77
2022-12-24T10:23:13.071Z,8.20
2022-12-24T10:26:07.473Z,5.80
2022-12-24T10:29:09.263Z,6.50
2022-12-24T10:31:40.467Z,6.07
2022-12-24T10:34:15.842Z,6.20
2022-12-24T10:36:42.768Z,6.40
2022-12-24T10:39:19.470Z,6.90
2022-12-24T10:41:50.056Z,7.60
2022-12-24T10:44:20.848Z,6.80
2022-12-24T10:46:48.455Z,6.93
2022-12-24T10:49:30.275Z,6.43
2022-12-24T10:52:12.752Z,7.70
2022-12-24T10:55:17.826Z,6.93
2022-12-24T10:57:46.376Z,6.77
2022-12-24T11:00:36.348Z,7.03
2022-12-24T11:03:27.409Z,6.30
2022-12-24T11:06:15.639Z,6.87
2022-12-24T11:08:45.154Z,8.80
2022-12-24T11:11:20.452Z,5.90
2022-12-24T11:14:05.964Z,7.40
2022-12-24T11:16:38.038Z,6.30
2022-12-24T11:19:15.422Z,7.20
2022-12-24T11:21:43.228Z,6.83
2022-12-24T11:24:31.157Z,7.87
2022-12-24T11:27:36.676Z,7.20
2022-12-24T11:30:37.175Z,5.00
2022-12-24T11:33:19.060Z,8.20
2022-12-24T11:35:54.513Z,7.07
2022-12-24T11:38:25.130Z,6.67
2022-12-24T11:41:25.764Z,7.43
2022-12-24T11:44:01.606Z,6.43
2022-12-24T11:46:44.815Z,6.93
2022-12-24T11:49:27.242Z,6.17
2022-12-24T11:52:19.796Z,7.70
2022-12-24T11:55:13.865Z,6.43
2022-12-24T11:57:52.572Z,5.93
2022-12-24T12:00:19.685Z,6.30
2022-12-24T12:02:50.071Z,6.23
2022-12-24T12:05:23.950Z,6.40
2022-12-24T12:07:56.782Z,6.87
2022-12-24T12:10:31.398Z,7.27
2022-12-24T12:13:15.464Z,7.80
2022-12-24T12:15:54.294Z,8.73
2022-12-24T12:18:36.884Z,7.37
2022-12-24T12:21:14.541Z,8.17
2022-12-24T12:23:49.701Z,8.27
2022-12-24T12:26:25.150Z,8.27
2022-12-24T12:29:24.560Z,6.80
2022-12-24T12:31:57.841Z,8.77
2022-12-24T12:34:44.364Z,7.87
2022-12-24T12:37:43.410Z,7.03
2022-12-24T12:40:18.016Z,7.03
2022-12-24T12:42:59.197Z,7.70
2022-12-24T12:46:15.932Z,6.10
2022-12-24T12:49:34.931Z,7.40
2022-12-24T12:52:36.137Z,7.63
2022-12-24T12:55:24.974Z,7.60
2022-12-24T12:57:59.955Z,6.80
2022-12-24T13:00:30.161Z,6.33
2022-12-24T13:03:22.065Z,6.50
2022-12-24T13:06:27.776Z,6.93
2022-12-24T13:28:49.485Z,7.27
2022-12-24T13:34:35.760Z,8.03
2022-12-24T13:37:19.961Z,6.70
2022-12-24T13:40:28.376Z,7.13
2022-12-24T13:43:21.428Z,6.40
2022-12-24T13:45:50.780Z,7.43
2022-12-24T13:48:33.900Z,6.50
2022-12-24T13:51:29.345Z,6.03
2022-12-24T13:54:09.621Z,7.10
2022-12-24T13:56:43.245Z,6.97
2022-12-24T13:59:38.036Z,5.93
2022-12-24T14:02:25.238Z,6.40
2022-12-24T14:04:55.146Z,7.73
2022-12-24T14:07:23.731Z,8.40
2022-12-24T14:09:51.862Z,6.10
2022-12-24T14:12:45.353Z,6.40
2022-12-24T14:16:07.553Z,7.30
2022-12-24T14:19:11.933Z,6.43
2022-12-24T14:21:46.844Z,5.87
2022-12-24T14:24:24.954Z,6.37
2022-12-24T14:26:59.222Z,5.50
2022-12-24T14:29:32.825Z,5.10
2022-12-24T14:32:04.483Z,6.43
2022-12-24T14:34:32.393Z,6.13
2022-12-24T14:37:01.629Z,6.00
2022-12-24T14:39:31.113Z,6.20
2022-12-24T14:42:49.481Z,6.60
2022-12-24T14:45:51.649Z,6.93
2022-12-24T14:48:52.198Z,7.20
2022-12-24T14:52:03.754Z,6.73
2022-12-24T14:54:48.721Z,7.50
2022-12-24T14:57:21.787Z,7.70
2022-12-24T15:00:06.422Z,7.47
2022-12-24T15:02:51.449Z,7.07
2022-12-24T15:05:24.685Z,6.63
2022-12-24T15:08:01.429Z,6.17
2022-12-24T15:10:41.009Z,7.10
2022-12-24T15:13:26.617Z,6.90
2022-12-24T15:15:55.800Z,6.83
2022-12-24T15:18:26.611Z,7.73
2022-12-24T15:21:03.502Z,6.90
2022-12-24T15:23:34.230Z,7.67
2022-12-24T15:26:26.401Z,7.90
2022-12-24T15:29:02.397Z,7.63
2022-12-24T15:31:33.900Z,6.00
2022-12-24T15:34:03.228Z,6.07
2022-12-24T15:36:33.557Z,6.73
2022-12-24T15:39:14.091Z,6.90
2022-12-24T15:42:03.162Z,7.10
2022-12-24T15:44:37.038Z,7.17
2022-12-24T15:47:07.349Z,7.50
2022-12-24T15:49:35.455Z,7.50
2022-12-24T15:52:09.578Z,6.83
2022-12-24T15:54:36.866Z,8.40
2022-12-24T15:57:15.470Z,7.37
2022-12-24T15:59:42.909Z,7.93
2022-12-24T16:02:41.812Z,7.70
2022-12-24T16:05:27.598Z,8.27
2022-12-24T16:08:24.506Z,7.80
2022-12-24T16:11:10.495Z,7.77
2022-12-24T16:13:55.304Z,7.10
2022-12-24T16:16:30.748Z,7.90
2022-12-24T16:19:00.673Z,7.60
2022-12-24T16:21:41.266Z,9.57
2022-12-24T16:24:27.666Z,8.60
2022-12-24T16:26:54.869Z,7.57
2022-12-24T16:29:22.724Z,8.90
2022-12-24T16:31:54.915Z,8.20
2022-12-24T16:34:26.219Z,7.63
2022-12-24T16:36:53.527Z,9.40
2022-12-24T16:39:24.108Z,8.30
2022-12-24T16:42:10.926Z,9.77
2022-12-24T16:44:38.377Z,8.50
2022-12-24T16:47:35.753Z,8.77
2022-12-24T16:50:08.873Z,8.67
2022-12-24T16:52:35.900Z,38.67
2022-12-24T16:55:02.947Z,11.93
2022-12-24T16:57:33.004Z,11.60
2022-12-24T17:00:00.022Z,21.37
2022-12-24T17:02:27.271Z,30.17
2022-12-24T17:04:55.110Z,18.63
2022-12-24T17:07:22.402Z,15.60
2022-12-24T17:09:49.363Z,17.17
2022-12-24T17:12:16.732Z,12.00
2022-12-24T17:14:43.709Z,15.87
2022-12-24T17:17:39.950Z,11.07
2022-12-24T17:20:08.125Z,11.00
2022-12-24T17:22:37.037Z,12.00
2022-12-24T17:25:04.930Z,13.80
2022-12-24T17:27:32.113Z,13.23
2022-12-24T17:29:59.175Z,12.53
2022-12-24T17:32:29.809Z,13.10
2022-12-24T17:34:56.880Z,14.90
2022-12-24T17:37:23.790Z,13.80
2022-12-24T17:39:50.875Z,15.97
2022-12-24T17:42:17.793Z,19.97
2022-12-24T17:44:45.043Z,12.87
2022-12-24T17:47:11.993Z,15.20
2022-12-24T17:49:38.888Z,14.73
2022-12-24T17:52:06.114Z,17.73
2022-12-24T17:54:33.134Z,21.83
2022-12-24T17:57:00.038Z,12.20
2022-12-24T17:59:27.156Z,9.83
2022-12-24T18:01:54.125Z,10.07
2022-12-24T18:04:21.114Z,8.97
2022-12-24T18:06:49.730Z,8.50
2022-12-24T18:09:17.383Z,9.23
2022-12-24T18:11:44.599Z,8.63
2022-12-24T18:14:14.236Z,8.60
2022-12-24T18:16:42.545Z,8.40
2022-12-24T18:19:11.967Z,8.87
2022-12-24T18:21:40.057Z,10.80
2022-12-24T18:24:07.846Z,10.53
2022-12-24T18:26:35.098Z,11.50
2022-12-24T18:29:06.186Z,10.70
2022-12-24T18:31:34.430Z,11.90
2022-12-24T18:34:02.823Z,11.57
2022-12-24T18:36:30.037Z,13.20
2022-12-24T18:38:57.280Z,13.60
2022-12-24T18:41:27.025Z,12.50
2022-12-24T18:43:54.627Z,11.70
2022-12-24T18:46:32.538Z,14.13
2022-12-24T18:49:01.031Z,13.50
2022-12-24T18:51:31.600Z,13.03
2022-12-24T18:53:58.762Z,13.00
2022-12-24T18:56:27.021Z,14.43
2022-12-24T18:58:56.205Z,15.80
2022-12-24T19:01:27.211Z,15.60
2022-12-24T19:03:54.341Z,16.23
2022-12-24T19:06:21.988Z,16.67
2022-12-24T19:08:58.903Z,15.67
2022-12-24T19:11:28.197Z,14.20
2022-12-24T19:13:55.315Z,14.27
2022-12-24T19:16:22.839Z,16.10
2022-12-24T19:18:50.523Z,12.40
2022-12-24T19:21:18.320Z,14.07
2022-12-24T19:23:46.483Z,14.57
2022-12-24T19:26:16.056Z,14.13
2022-12-24T19:28:43.385Z,16.30
2022-12-24T19:31:13.317Z,14.43
2022-12-24T19:33:43.704Z,14.37
2022-12-24T19:36:14.271Z,13.80
2022-12-24T19:38:41.501Z,14.13
2022-12-24T19:41:10.391Z,14.80
2022-12-24T19:43:42.190Z,14.00
2022-12-24T19:46:15.314Z,14.50
2022-12-24T19:48:43.200Z,13.47
2022-12-24T19:51:12.198Z,13.40
2022-12-24T19:53:39.791Z,12.50
2022-12-24T19:56:07.360Z,14.67
2022-12-24T19:58:34.607Z,13.17
2022-12-24T20:01:14.932Z,12.43
2022-12-24T20:03:45.421Z,14.10
2022-12-24T20:06:13.747Z,12.63
2022-12-24T20:08:42.665Z,13.20
2022-12-24T20:11:12.410Z,13.73
2022-12-24T20:13:41.157Z,13.57
2022-12-24T20:16:13.748Z,13.90
2022-12-24T20:18:40.729Z,13.67
2022-12-24T20:21:09.464Z,13.57
2022-12-24T20:23:42.602Z,13.27
2022-12-24T20:26:12.752Z,14.10
2022-12-24T20:28:40.769Z,15.17
2022-12-24T20:31:20.402Z,13.97
2022-12-24T20:33:47.875Z,13.27
2022-12-24T20:36:17.324Z,14.03
2022-12-24T20:38:44.695Z,15.07
2022-12-24T20:41:16.790Z,14.57
2022-12-24T20:43:48.338Z,12.70
2022-12-24T20:46:17.508Z,13.00
2022-12-24T20:48:44.675Z,12.23
2022-12-24T20:51:23.266Z,11.77
2022-12-24T20:53:55.435Z,12.93
2022-12-24T20:56:22.837Z,10.17
2022-12-24T20:58:49.860Z,10.43
2022-12-24T21:01:24.898Z,11.70
2022-12-24T21:03:54.790Z,10.63
2022-12-24T21:06:23.798Z,10.87
2022-12-24T21:08:51.866Z,12.13
2022-12-24T21:11:37.859Z,11.30
2022-12-24T21:14:05.148Z,10.70
2022-12-24T21:16:35.326Z,10.03
2022-12-24T21:19:02.798Z,11.50
2022-12-24T21:21:29.830Z,10.13
2022-12-24T21:23:56.815Z,10.67
2022-12-24T21:26:26.167Z,9.60
2022-12-24T21:28:54.361Z,12.00
2022-12-24T21:31:21.883Z,11.40
2022-12-24T21:33:48.886Z,11.17
2022-12-24T21:36:16.746Z,11.87
2022-12-24T21:38:44.259Z,12.27
2022-12-24T21:41:17.483Z,10.23
2022-12-24T21:43:45.005Z,12.67
2022-12-24T21:46:14.962Z,10.83
2022-12-24T21:49:01.180Z,11.47
2022-12-24T21:51:31.816Z,12.13
2022-12-24T21:54:18.332Z,10.90
2022-12-24T21:57:03.855Z,11.10
2022-12-24T21:59:30.946Z,12.10
2022-12-24T22:01:58.253Z,12.27
2022-12-24T22:04:26.180Z,10.87
2022-12-24T22:07:11.793Z,11.17
2022-12-24T22:09:58.460Z,10.50
2022-12-24T22:12:31.124Z,11.47
2022-12-24T22:14:58.588Z,10.00
2022-12-24T22:17:26.137Z,10.23
2022-12-24T22:19:54.295Z,12.10
2022-12-24T22:22:21.889Z,9.53
2022-12-24T22:24:48.883Z,9.10
2022-12-24T22:27:15.908Z,9.80
2022-12-24T22:29:42.962Z,9.07
2022-12-24T22:32:10.235Z,9.37
2022-12-24T22:34:37.181Z,9.00
2022-12-24T22:37:04.135Z,9.57
2022-12-24T22:39:31.287Z,10.30
2022-12-24T22:41:58.360Z,10.40
2022-12-24T22:44:25.827Z,10.00
2022-12-24T22:46:52.835Z,9.33
2022-12-24T22:49:19.738Z,9.50
2022-12-24T22:51:46.723Z,8.00
2022-12-24T22:54:13.699Z,9.60
2022-12-24T22:56:41.764Z,8.50
2022-12-24T22:59:12.525Z,9.20
2022-12-24T23:01:41.908Z,9.23
2022-12-24T23:04:10.058Z,9.37
2022-12-24T23:06:39.121Z,11.17
2022-12-24T23:09:08.533Z,9.20
2022-12-24T23:11:35.785Z,8.57
2022-12-24T23:14:21.503Z,9.90
2022-12-24T23:16:48.416Z,9.13
2022-12-24T23:19:15.633Z,8.80
2022-12-24T23:21:42.776Z,8.60
2022-12-24T23:24:11.517Z,9.60
2022-12-24T23:26:38.503Z,8.33
2022-12-24T23:29:05.524Z,9.60
2022-12-24T23:31:35.019Z,8.60
2022-12-24T23:34:02.471Z,9.57
2022-12-24T23:36:29.830Z,8.97
2022-12-24T23:38:57.633Z,10.20
2022-12-24T23:41:24.791Z,8.13
2022-12-24T23:43:51.959Z,8.67
2022-12-24T23:46:20.710Z,9.57
2022-12-24T23:48:48.320Z,8.40
2022-12-24T23:51:17.574Z,9.17
2022-12-24T23:53:44.638Z,8.17
2022-12-24T23:56:12.806Z,10.87
2022-12-24T23:58:41.220Z,10.20
